Map

Track Data

SID SEASON NUMBER BASIN SUBBASIN NAME ISO_TIME NATURE LAT LON WMO_WIND WMO_PRES WMO_AGENCY TRACK_TYPE DIST2LAND LANDFALL IFLAG USA_AGENCY USA_ATCF_ID USA_LAT USA_LON USA_RECORD USA_STATUS USA_WIND USA_PRES USA_SSHS USA_R34_NE USA_R34_SE USA_R34_SW USA_R34_NW USA_R50_NE USA_R50_SE USA_R50_SW USA_R50_NW USA_R64_NE USA_R64_SE USA_R64_SW USA_R64_NW USA_POCI USA_ROCI USA_RMW USA_EYE TOKYO_LAT TOKYO_LON TOKYO_GRADE TOKYO_WIND TOKYO_PRES TOKYO_R50_DIR TOKYO_R50_LONG TOKYO_R50_SHORT TOKYO_R30_DIR TOKYO_R30_LONG TOKYO_R30_SHORT TOKYO_LAND CMA_LAT CMA_LON CMA_CAT CMA_WIND CMA_PRES HKO_LAT HKO_LON HKO_CAT HKO_WIND HKO_PRES NEWDELHI_LAT NEWDELHI_LON NEWDELHI_GRADE NEWDELHI_WIND NEWDELHI_PRES NEWDELHI_CI NEWDELHI_DP NEWDELHI_POCI REUNION_LAT REUNION_LON REUNION_TYPE REUNION_WIND REUNION_PRES REUNION_TNUM REUNION_CI REUNION_RMW REUNION_R34_NE REUNION_R34_SE REUNION_R34_SW REUNION_R34_NW REUNION_R50_NE REUNION_R50_SE REUNION_R50_SW REUNION_R50_NW REUNION_R64_NE REUNION_R64_SE REUNION_R64_SW REUNION_R64_NW BOM_LAT BOM_LON BOM_TYPE BOM_WIND BOM_PRES BOM_TNUM BOM_CI BOM_RMW BOM_R34_NE BOM_R34_SE BOM_R34_SW BOM_R34_NW BOM_R50_NE BOM_R50_SE BOM_R50_SW BOM_R50_NW BOM_R64_NE BOM_R64_SE BOM_R64_SW BOM_R64_NW BOM_ROCI BOM_POCI BOM_EYE BOM_POS_METHOD BOM_PRES_METHOD NADI_LAT NADI_LON NADI_CAT NADI_WIND NADI_PRES WELLINGTON_LAT WELLINGTON_LON WELLINGTON_WIND WELLINGTON_PRES DS824_LAT DS824_LON DS824_STAGE DS824_WIND DS824_PRES TD9636_LAT TD9636_LON TD9636_STAGE TD9636_WIND TD9636_PRES TD9635_LAT TD9635_LON TD9635_WIND TD9635_PRES TD9635_ROCI NEUMANN_LAT NEUMANN_LON NEUMANN_CLASS NEUMANN_WIND NEUMANN_PRES MLC_LAT MLC_LON MLC_CLASS MLC_WIND MLC_PRES USA_GUST BOM_GUST BOM_GUST_PER REUNION_GUST REUNION_GUST_PER USA_SEAHGT USA_SEARAD_NE USA_SEARAD_SE USA_SEARAD_SW USA_SEARAD_NW STORM_SPEED STORM_DIR
1955308N09092 1955 92 NI BB NOT_NAMED 1955-11-03 18:00:00 TS 8.90000 91.7000 main 534 534 O________O____ jtwc_io IO121955 8.90000 91.7000 -1 8.90000 91.7000 TC 8 282
1955308N09092 1955 92 NI BB NOT_NAMED 1955-11-03 21:00:00 TS 8.98508 91.3075 main 574 574 P________P____ IO121955 8.98508 91.3075 -1 8.98508 91.3075 TC 8 284
1955308N09092 1955 92 NI BB NOT_NAMED 1955-11-04 00:00:00 TS 9.10000 90.9000 main 615 615 O________O____ jtwc_io IO121955 9.10000 90.9000 -1 9.10000 90.9000 TC 25 9 289
1955308N09092 1955 92 NI BB NOT_NAMED 1955-11-04 03:00:00 TS 9.27328 90.4688 main 663 663 P________PO___ IO121955 9.26994 90.4649 -1 9.26994 90.4649 TC 25 9.30000 90.5000 1 10 295
1955308N09092 1955 92 NI BB NOT_NAMED 1955-11-04 06:00:00 TS 9.51232 89.9967 main 721 721 O________OP___ jtwc_io IO121955 9.50000 90.0000 -1 9.50000 90.0000 TC 25 9.56158 89.9834 1 11 299
1955308N09092 1955 92 NI BB NOT_NAMED 1955-11-04 09:00:00 TS 9.79678 89.4927 main 785 785 P________PP___ IO121955 9.78499 89.5000 -1 9.78499 89.5000 TC 25 9.82822 89.4731 1 12 301
1955308N09092 1955 92 NI BB NOT_NAMED 1955-11-04 12:00:00 TS 10.1019 88.9921 main 839 806 O________OP___ jtwc_io IO121955 10.1000 89.0000 -1 10.1000 89.0000 TC 25 10.1057 88.9763 1 11 302
1955308N09092 1955 92 NI BB NOT_NAMED 1955-11-04 15:00:00 TS 10.3949 88.5282 main 800 774 P________PO___ IO121955 10.3924 88.5424 -1 10.3924 88.5424 TC 30 10.4000 88.5000 1 11 304
1955308N09092 1955 92 NI BB NOT_NAMED 1955-11-04 18:00:00 TS 10.7053 88.0830 main 774 749 O________OP___ jtwc_io IO121955 10.7000 88.1000 -1 10.7000 88.1000 TC 35 10.7160 88.0490 1 11 306
1955308N09092 1955 92 NI BB NOT_NAMED 1955-11-04 21:00:00 TS 11.0415 87.6348 main 739 719 P________PP___ IO121955 11.0350 87.6424 -1 11.0350 87.6424 TC 35 11.0547 87.6195 1 11 309
1955308N09092 1955 92 NI BB NOT_NAMED 1955-11-05 00:00:00 TS 11.4053 87.2017 main 719 697 O________OP___ jtwc_io IO121955 11.4000 87.2000 -1 11.4000 87.2000 TC 35 11.4160 87.2052 1 11 312
1955308N09092 1955 92 NI BB NOT_NAMED 1955-11-05 03:00:00 TS 11.7899 86.7949 main 703 661 P________PO___ IO121955 11.7849 86.7924 -1 11.7849 86.7924 TC 35 11.8000 86.8000 3 11 315
1955308N09092 1955 92 NI BB NOT_NAMED 1955-11-05 06:00:00 TS 12.1997 86.3948 main 661 599 O________OP___ jtwc_io IO121955 12.2000 86.4000 -1 12.2000 86.4000 TC 35 12.1992 86.3845 3 12 317
1955308N09092 1955 92 NI BB NOT_NAMED 1955-11-05 09:00:00 TS 12.6399 85.9923 main 599 528 P________PP___ IO121955 12.6499 85.9999 -1 12.6499 85.9999 TC 35 12.6198 85.9772 3 12 319
1955308N09092 1955 92 NI BB NOT_NAMED 1955-11-05 12:00:00 TS 13.0852 85.5938 main 528 466 O________OP___ jtwc_io IO121955 13.1000 85.6000 -1 13.1000 85.6000 TC 35 13.0555 85.5813 3 12 318
1955308N09092 1955 92 NI BB NOT_NAMED 1955-11-05 15:00:00 TS 13.4950 85.1949 main 466 404 P________PO___ IO121955 13.4925 85.1923 -1 13.4925 85.1923 TC 35 13.5000 85.2000 3 11 317
1955308N09092 1955 92 NI BB NOT_NAMED 1955-11-05 18:00:00 TS 13.9211 84.7931 main 404 333 O________OP___ jtwc_io IO121955 13.9000 84.8000 -1 13.9000 84.8000 TC 35 13.9632 84.7793 3 12 320
1955308N09092 1955 92 NI BB NOT_NAMED 1955-11-05 21:00:00 TS 14.4101 84.4120 main 333 270 P________PP___ IO121955 14.4000 84.4275 -1 14.4000 84.4275 TC 30 14.4302 84.3809 3 12 325
1955308N09092 1955 92 NI BB NOT_NAMED 1955-11-06 00:00:00 TS 14.8940 84.0807 main 270 216 O________OP___ jtwc_io IO121955 14.9000 84.1000 -1 14.9000 84.1000 TC 25 14.8820 84.0419 3 11 327
1955308N09092 1955 92 NI BB NOT_NAMED 1955-11-06 03:00:00 TS 15.3200 83.7934 main 216 171 P________PO___ IO121955 15.3300 83.7900 -1 15.3300 83.7900 TC 25 15.3000 83.8000 1 9 331
1955308N09092 1955 92 NI BB NOT_NAMED 1955-11-06 06:00:00 TS 15.6909 83.6248 main 171 154 O________OP___ jtwc_io IO121955 15.7000 83.6000 -1 15.7000 83.6000 TC 25 15.6727 83.6743 1 7 346
1955308N09092 1955 92 NI BB NOT_NAMED 1955-11-06 09:00:00 TS 16.0131 83.6146 main 154 144 P________PP___ IO121955 16.0149 83.5973 -1 16.0149 83.5973 TC 25 16.0095 83.6492 1 6 6
1955308N09092 1955 92 NI BB NOT_NAMED 1955-11-06 12:00:00 TS 16.3055 83.6999 main 149 128 O________OP___ jtwc_io IO121955 16.3000 83.7000 -1 16.3000 83.7000 TC 25 16.3166 83.6996 1 6 16
1955308N09092 1955 92 NI BB NOT_NAMED 1955-11-06 15:00:00 TS 16.6050 83.7900 main 128 107 P________PO___ IO121955 16.6075 83.7850 -1 16.6075 83.7850 TC 25 16.6000 83.8000 1 6 19
1955308N09092 1955 92 NI BB NOT_NAMED 1955-11-06 18:00:00 TS 16.8862 83.9113 main 107 100 O________OP___ jtwc_io IO121955 16.9000 83.9000 -1 16.9000 83.9000 TC 25 16.8655 83.9282 1 6 25
1955308N09092 1955 92 NI BB NOT_NAMED 1955-11-06 21:00:00 TS 17.1419 84.0564 main 107 92 P________PP___ IO121955 17.1600 84.0424 -1 17.1600 84.0424 TC 25 17.1178 84.0750 1 6 31
1955308N09092 1955 92 NI BB NOT_NAMED 1955-11-07 00:00:00 TS 17.3806 84.2171 main 92 84 O________OP___ jtwc_io IO121955 17.4000 84.2000 -1 17.4000 84.2000 TC 25 17.3612 84.2343 1 6 36
1955308N09092 1955 92 NI BB NOT_NAMED 1955-11-07 03:00:00 NR 17.6000 84.4000 main 84 __________O___ IO121955 -1 TC 17.6000 84.4000 1 6 38

About IBTrACS Database

This database is a web-friendly format of International Best Track Archive for Climate Stewardship (IBTrACS), a global best track data archive curated by NOAA dating back to 1842.

Updated: 2021-12-01